sensor_id;sensor_type;location;lat;lon;timestamp;pressure;altitude;pressure_sealevel;temperature;humidity
80644;BME280;70010;60.224;24.712;2024-03-02T00:01:20;102212.25;;;-3.22;70.51
80644;BME280;70010;60.224;24.712;2024-03-02T00:03:45;102208.87;;;-3.62;70.21
80644;BME280;70010;60.224;24.712;2024-03-02T00:06:10;102209.33;;;-1.78;63.01
80644;BME280;70010;60.224;24.712;2024-03-02T00:08:36;102218.88;;;-1.91;64.25
80644;BME280;70010;60.224;24.712;2024-03-02T00:11:01;102223.88;;;-2.79;66.69
80644;BME280;70010;60.224;24.712;2024-03-02T00:13:26;102223.59;;;-1.61;63.64
80644;BME280;70010;60.224;24.712;2024-03-02T00:15:53;102231.56;;;-2.90;67.70
80644;BME280;70010;60.224;24.712;2024-03-02T00:18:19;102234.46;;;-2.11;63.33
80644;BME280;70010;60.224;24.712;2024-03-02T00:20:42;102232.59;;;-3.28;68.05
80644;BME280;70010;60.224;24.712;2024-03-02T00:23:10;102226.62;;;-2.02;65.16
80644;BME280;70010;60.224;24.712;2024-03-02T00:25:38;102220.77;;;-1.50;62.32
80644;BME280;70010;60.224;24.712;2024-03-02T00:28:00;102220.88;;;-0.57;59.14
80644;BME280;70010;60.224;24.712;2024-03-02T00:30:37;102216.54;;;-1.34;61.57
80644;BME280;70010;60.224;24.712;2024-03-02T00:32:50;102220.95;;;-0.44;59.06
80644;BME280;70010;60.224;24.712;2024-03-02T00:35:21;102220.54;;;-3.18;66.30
80644;BME280;70010;60.224;24.712;2024-03-02T00:37:41;102214.45;;;-2.60;67.35
80644;BME280;70010;60.224;24.712;2024-03-02T00:40:08;102212.46;;;-2.16;64.44
80644;BME280;70010;60.224;24.712;2024-03-02T00:42:32;102204.47;;;-0.73;60.45
80644;BME280;70010;60.224;24.712;2024-03-02T00:44:57;102200.00;;;-0.90;61.15
80644;BME280;70010;60.224;24.712;2024-03-02T00:47:22;102203.28;;;-3.16;67.70
80644;BME280;70010;60.224;24.712;2024-03-02T00:49:47;102201.40;;;-3.48;69.46
80644;BME280;70010;60.224;24.712;2024-03-02T00:52:13;102204.12;;;-3.60;69.98
80644;BME280;70010;60.224;24.712;2024-03-02T00:54:38;102197.66;;;-0.35;62.01
80644;BME280;70010;60.224;24.712;2024-03-02T00:57:04;102187.55;;;-1.81;63.80
80644;BME280;70010;60.224;24.712;2024-03-02T00:59:28;102180.92;;;-2.59;65.26
80644;BME280;70010;60.224;24.712;2024-03-02T01:01:54;102179.59;;;-2.59;65.90
80644;BME280;70010;60.224;24.712;2024-03-02T01:04:19;102187.23;;;-0.92;60.72
80644;BME280;70010;60.224;24.712;2024-03-02T01:06:44;102179.40;;;-3.12;66.66
80644;BME280;70010;60.224;24.712;2024-03-02T01:09:10;102176.47;;;-2.35;66.23
80644;BME280;70010;60.224;24.712;2024-03-02T01:11:35;102174.61;;;-3.29;68.00
80644;BME280;70010;60.224;24.712;2024-03-02T01:14:01;102164.19;;;-1.02;61.38
80644;BME280;70010;60.224;24.712;2024-03-02T01:16:26;102170.45;;;-2.60;64.17
80644;BME280;70010;60.224;24.712;2024-03-02T01:18:52;102173.39;;;-1.70;64.05
80644;BME280;70010;60.224;24.712;2024-03-02T01:21:17;102171.95;;;-0.40;60.39
80644;BME280;70010;60.224;24.712;2024-03-02T01:23:42;102173.22;;;-1.43;63.80
80644;BME280;70010;60.224;24.712;2024-03-02T01:26:07;102170.22;;;-0.48;59.34
80644;BME280;70010;60.224;24.712;2024-03-02T01:28:34;102166.15;;;-0.88;60.01
80644;BME280;70010;60.224;24.712;2024-03-02T01:30:59;102158.82;;;-0.79;61.26
80644;BME280;70010;60.224;24.712;2024-03-02T01:33:24;102151.52;;;-0.59;60.21
80644;BME280;70010;60.224;24.712;2024-03-02T01:35:50;102148.97;;;-0.52;59.13
80644;BME280;70010;60.224;24.712;2024-03-02T01:38:15;102147.62;;;-1.53;61.58
80644;BME280;70010;60.224;24.712;2024-03-02T01:40:41;102140.81;;;0.26;58.50
80644;BME280;70010;60.224;24.712;2024-03-02T01:43:06;102145.86;;;-0.95;60.27
80644;BME280;70010;60.224;24.712;2024-03-02T01:45:32;102144.67;;;-3.17;67.08
80644;BME280;70010;60.224;24.712;2024-03-02T01:47:58;102152.74;;;-0.13;59.59
80644;BME280;70010;60.224;24.712;2024-03-02T01:50:26;102154.21;;;-1.50;63.89
80644;BME280;70010;60.224;24.712;2024-03-02T01:52:49;102157.39;;;-2.05;64.34
80644;BME280;70010;60.224;24.712;2024-03-02T01:55:14;102162.78;;;-0.51;60.35
80644;BME280;70010;60.224;24.712;2024-03-02T01:57:40;102169.76;;;-2.71;63.93
80644;BME280;70010;60.224;24.712;2024-03-02T02:00:06;102169.96;;;-2.48;66.33
80644;BME280;70010;60.224;24.712;2024-03-02T02:02:30;102168.01;;;-1.87;62.43
80644;BME280;70010;60.224;24.712;2024-03-02T02:04:55;102164.70;;;-2.13;64.38
80644;BME280;70010;60.224;24.712;2024-03-02T02:07:20;102166.27;;;-1.33;63.14
80644;BME280;70010;60.224;24.712;2024-03-02T02:09:45;102167.96;;;-1.93;63.86
80644;BME280;70010;60.224;24.712;2024-03-02T02:12:11;102171.79;;;-2.87;66.78
80644;BME280;70010;60.224;24.712;2024-03-02T02:14:36;102165.97;;;-1.47;63.73
80644;BME280;70010;60.224;24.712;2024-03-02T02:17:01;102163.12;;;-0.94;62.44
80644;BME280;70010;60.224;24.712;2024-03-02T02:19:27;102163.82;;;-0.40;60.16
80644;BME280;70010;60.224;24.712;2024-03-02T02:21:52;102161.33;;;-1.68;63.32
80644;BME280;70010;60.224;24.712;2024-03-02T02:24:17;102160.63;;;-3.01;66.63
80644;BME280;70010;60.224;24.712;2024-03-02T02:26:43;102157.32;;;-0.76;61.28
80644;BME280;70010;60.224;24.712;2024-03-02T02:29:09;102154.63;;;-1.49;61.06
80644;BME280;70010;60.224;24.712;2024-03-02T02:31:37;102151.85;;;0.19;58.19
80644;BME280;70010;60.224;24.712;2024-03-02T02:34:00;102157.00;;;-2.89;65.00
80644;BME280;70010;60.224;24.712;2024-03-02T02:36:25;102154.02;;;-2.89;67.34
80644;BME280;70010;60.224;24.712;2024-03-02T02:38:51;102158.07;;;-3.46;68.94
80644;BME280;70010;60.224;24.712;2024-03-02T02:41:16;102157.66;;;-2.05;64.89
80644;BME280;70010;60.224;24.712;2024-03-02T02:43:42;102154.32;;;-0.06;59.07
80644;BME280;70010;60.224;24.712;2024-03-02T02:46:08;102148.09;;;-0.71;59.55
80644;BME280;70010;60.224;24.712;2024-03-02T02:48:33;102143.83;;;0.49;57.00
80644;BME280;70010;60.224;24.712;2024-03-02T02:50:59;102150.56;;;-0.31;59.42
80644;BME280;70010;60.224;24.712;2024-03-02T02:53:25;102153.65;;;-2.44;64.97
80644;BME280;70010;60.224;24.712;2024-03-02T02:55:50;102154.64;;;-1.27;61.77
80644;BME280;70010;60.224;24.712;2024-03-02T02:58:16;102147.41;;;0.58;57.35
80644;BME280;70010;60.224;24.712;2024-03-02T03:00:42;102143.09;;;0.57;56.61
80644;BME280;70010;60.224;24.712;2024-03-02T03:03:07;102145.83;;;0.78;56.09
80644;BME280;70010;60.224;24.712;2024-03-02T03:05:32;102155.28;;;-1.25;60.18
80644;BME280;70010;60.224;24.712;2024-03-02T03:07:57;102158.27;;;-0.30;58.39
80644;BME280;70010;60.224;24.712;2024-03-02T03:10:23;102156.19;;;-0.35;57.70
80644;BME280;70010;60.224;24.712;2024-03-02T03:12:49;102154.24;;;-1.37;60.71
80644;BME280;70010;60.224;24.712;2024-03-02T03:15:14;102151.30;;;-0.82;61.14
80644;BME280;70010;60.224;24.712;2024-03-02T03:17:39;102140.06;;;-2.09;63.31
80644;BME280;70010;60.224;24.712;2024-03-02T03:20:06;102135.14;;;-0.31;59.18
80644;BME280;70010;60.224;24.712;2024-03-02T03:22:30;102124.97;;;0.01;58.15
80644;BME280;70010;60.224;24.712;2024-03-02T03:24:56;102124.54;;;-0.07;57.66
80644;BME280;70010;60.224;24.712;2024-03-02T03:27:22;102117.13;;;0.27;56.16
80644;BME280;70010;60.224;24.712;2024-03-02T03:29:48;102117.54;;;-0.26;58.35
80644;BME280;70010;60.224;24.712;2024-03-02T03:32:13;102127.06;;;-1.20;60.77
80644;BME280;70010;60.224;24.712;2024-03-02T03:34:39;102119.02;;;0.21;57.56
80644;BME280;70010;60.224;24.712;2024-03-02T03:37:04;102128.04;;;-0.24;57.96
80644;BME280;70010;60.224;24.712;2024-03-02T03:39:30;102129.59;;;-0.77;61.17
80644;BME280;70010;60.224;24.712;2024-03-02T03:41:55;102129.80;;;-0.66;60.40
80644;BME280;70010;60.224;24.712;2024-03-02T03:44:21;102125.93;;;-0.01;58.68
80644;BME280;70010;60.224;24.712;2024-03-02T03:46:47;102131.78;;;-1.58;64.00
80644;BME280;70010;60.224;24.712;2024-03-02T03:49:13;102131.36;;;-1.62;62.75
80644;BME280;70010;60.224;24.712;2024-03-02T03:51:38;102139.01;;;-1.24;62.74
80644;BME280;70010;60.224;24.712;2024-03-02T03:54:03;102142.13;;;-0.46;59.86
80644;BME280;70010;60.224;24.712;2024-03-02T03:56:29;102141.40;;;-0.35;58.97
80644;BME280;70010;60.224;24.712;2024-03-02T03:58:54;102134.51;;;0.70;56.81
80644;BME280;70010;60.224;24.712;2024-03-02T04:01:19;102134.00;;;0.17;57.69
80644;BME280;70010;60.224;24.712;2024-03-02T04:03:44;102135.31;;;0.07;58.91
80644;BME280;70010;60.224;24.712;2024-03-02T04:06:09;102143.83;;;-0.17;58.37
80644;BME280;70010;60.224;24.712;2024-03-02T04:08:35;102149.03;;;0.45;58.02
80644;BME280;70010;60.224;24.712;2024-03-02T04:11:00;102159.88;;;-2.42;64.75
80644;BME280;70010;60.224;24.712;2024-03-02T04:13:25;102155.67;;;-1.79;62.64
80644;BME280;70010;60.224;24.712;2024-03-02T04:15:51;102153.94;;;-2.00;64.39
80644;BME280;70010;60.224;24.712;2024-03-02T04:18:17;102146.04;;;0.53;57.60
80644;BME280;70010;60.224;24.712;2024-03-02T04:20:42;102145.10;;;0.72;56.98
80644;BME280;70010;60.224;24.712;2024-03-02T04:23:07;102147.30;;;0.94;56.14
80644;BME280;70010;60.224;24.712;2024-03-02T04:25:33;102145.33;;;1.10;55.33
80644;BME280;70010;60.224;24.712;2024-03-02T04:27:58;102144.62;;;1.42;55.14
80644;BME280;70010;60.224;24.712;2024-03-02T04:30:23;102145.54;;;0.58;57.14
80644;BME280;70010;60.224;24.712;2024-03-02T04:32:49;102146.95;;;-0.86;60.65
80644;BME280;70010;60.224;24.712;2024-03-02T04:35:15;102139.40;;;0.53;57.02
80644;BME280;70010;60.224;24.712;2024-03-02T04:37:39;102143.89;;;0.76;56.13
80644;BME280;70010;60.224;24.712;2024-03-02T04:40:06;102153.50;;;-1.07;60.27
80644;BME280;70010;60.224;24.712;2024-03-02T04:42:30;102144.44;;;1.17;55.84
80644;BME280;70010;60.224;24.712;2024-03-02T04:44:55;102145.79;;;0.98;55.61
80644;BME280;70010;60.224;24.712;2024-03-02T04:47:20;102140.86;;;0.50;57.01
80644;BME280;70010;60.224;24.712;2024-03-02T04:49:46;102144.41;;;1.07;55.69
80644;BME280;70010;60.224;24.712;2024-03-02T04:52:11;102143.03;;;1.00;56.05
80644;BME280;70010;60.224;24.712;2024-03-02T04:54:37;102140.46;;;0.68;55.98
80644;BME280;70010;60.224;24.712;2024-03-02T04:57:03;102149.77;;;-0.12;57.84
80644;BME280;70010;60.224;24.712;2024-03-02T04:59:28;102145.74;;;1.07;55.15
80644;BME280;70010;60.224;24.712;2024-03-02T05:01:54;102148.82;;;0.19;57.72
80644;BME280;70010;60.224;24.712;2024-03-02T05:04:19;102149.21;;;1.22;55.90
80644;BME280;70010;60.224;24.712;2024-03-02T05:06:44;102154.58;;;1.14;55.56
80644;BME280;70010;60.224;24.712;2024-03-02T05:09:09;102154.64;;;0.96;56.31
80644;BME280;70010;60.224;24.712;2024-03-02T05:11:35;102156.96;;;0.49;57.30
80644;BME280;70010;60.224;24.712;2024-03-02T05:14:00;102161.66;;;0.52;56.93
80644;BME280;70010;60.224;24.712;2024-03-02T05:16:26;102165.37;;;0.02;57.99
80644;BME280;70010;60.224;24.712;2024-03-02T05:18:51;102173.74;;;0.34;57.33
80644;BME280;70010;60.224;24.712;2024-03-02T05:21:17;102171.69;;;1.48;54.87
80644;BME280;70010;60.224;24.712;2024-03-02T05:23:42;102173.41;;;1.26;55.74
80644;BME280;70010;60.224;24.712;2024-03-02T05:26:07;102180.10;;;1.20;54.91
80644;BME280;70010;60.224;24.712;2024-03-02T05:28:32;102182.80;;;0.64;56.35
80644;BME280;70010;60.224;24.712;2024-03-02T05:30:58;102176.15;;;1.15;56.00
80644;BME280;70010;60.224;24.712;2024-03-02T05:33:23;102181.89;;;-0.51;59.63
80644;BME280;70010;60.224;24.712;2024-03-02T05:35:48;102178.99;;;0.48;56.93
80644;BME280;70010;60.224;24.712;2024-03-02T05:38:13;102177.91;;;1.17;55.73
80644;BME280;70010;60.224;24.712;2024-03-02T05:40:39;102181.38;;;0.65;57.21
80644;BME280;70010;60.224;24.712;2024-03-02T05:43:04;102175.41;;;0.89;56.62
80644;BME280;70010;60.224;24.712;2024-03-02T05:45:30;102172.70;;;0.55;56.58
80644;BME280;70010;60.224;24.712;2024-03-02T05:47:56;102178.65;;;0.31;57.46
80644;BME280;70010;60.224;24.712;2024-03-02T05:50:21;102179.55;;;0.24;58.54
80644;BME280;70010;60.224;24.712;2024-03-02T05:52:46;102178.17;;;1.15;56.52
80644;BME280;70010;60.224;24.712;2024-03-02T05:55:12;102186.67;;;-1.47;61.17
80644;BME280;70010;60.224;24.712;2024-03-02T05:57:37;102181.29;;;0.72;58.17
80644;BME280;70010;60.224;24.712;2024-03-02T06:00:02;102180.32;;;-1.00;61.60
80644;BME280;70010;60.224;24.712;2024-03-02T06:02:27;102167.87;;;1.12;56.86
80644;BME280;70010;60.224;24.712;2024-03-02T06:04:55;102171.84;;;-1.17;61.35
80644;BME280;70010;60.224;24.712;2024-03-02T06:07:18;102163.60;;;0.82;57.05
80644;BME280;70010;60.224;24.712;2024-03-02T06:09:43;102160.81;;;0.74;56.66
80644;BME280;70010;60.224;24.712;2024-03-02T06:12:09;102159.98;;;0.85;56.02
80644;BME280;70010;60.224;24.712;2024-03-02T06:14:34;102161.40;;;1.02;55.77
80644;BME280;70010;60.224;24.712;2024-03-02T06:17:00;102169.47;;;-1.73;64.20
80644;BME280;70010;60.224;24.712;2024-03-02T06:19:25;102174.40;;;-0.69;61.83
80644;BME280;70010;60.224;24.712;2024-03-02T06:21:51;102166.46;;;0.23;59.17
80644;BME280;70010;60.224;24.712;2024-03-02T06:24:16;102165.20;;;0.53;57.60
80644;BME280;70010;60.224;24.712;2024-03-02T06:26:42;102170.51;;;-0.87;61.36
80644;BME280;70010;60.224;24.712;2024-03-02T06:29:08;102167.44;;;0.60;57.32
80644;BME280;70010;60.224;24.712;2024-03-02T06:31:34;102168.74;;;1.01;56.24
80644;BME280;70010;60.224;24.712;2024-03-02T06:33:59;102171.16;;;1.52;56.14
80644;BME280;70010;60.224;24.712;2024-03-02T06:36:24;102176.33;;;0.61;56.68
80644;BME280;70010;60.224;24.712;2024-03-02T06:38:49;102188.36;;;-1.20;61.86
80644;BME280;70010;60.224;24.712;2024-03-02T06:41:15;102194.34;;;-2.05;66.57
80644;BME280;70010;60.224;24.712;2024-03-02T06:43:41;102196.60;;;-0.66;62.47
80644;BME280;70010;60.224;24.712;2024-03-02T06:46:06;102193.51;;;1.15;57.38
80644;BME280;70010;60.224;24.712;2024-03-02T06:48:32;102202.62;;;-0.24;59.62
80644;BME280;70010;60.224;24.712;2024-03-02T06:50:57;102197.73;;;-1.39;62.32
80644;BME280;70010;60.224;24.712;2024-03-02T06:53:22;102199.21;;;-1.45;62.57
80644;BME280;70010;60.224;24.712;2024-03-02T06:55:48;102205.21;;;-0.69;60.94
80644;BME280;70010;60.224;24.712;2024-03-02T06:58:14;102198.50;;;1.13;56.99
80644;BME280;70010;60.224;24.712;2024-03-02T07:00:40;102206.73;;;-0.57;61.85
80644;BME280;70010;60.224;24.712;2024-03-02T07:03:05;102210.29;;;-0.40;60.53
80644;BME280;70010;60.224;24.712;2024-03-02T07:05:31;102206.42;;;0.79;58.37
80644;BME280;70010;60.224;24.712;2024-03-02T07:07:56;102208.83;;;-1.43;63.03
80644;BME280;70010;60.224;24.712;2024-03-02T07:10:21;102206.11;;;0.67;58.28
80644;BME280;70010;60.224;24.712;2024-03-02T07:12:46;102201.45;;;2.15;55.02
80644;BME280;70010;60.224;24.712;2024-03-02T07:15:12;102206.38;;;1.63;55.87
80644;BME280;70010;60.224;24.712;2024-03-02T07:17:39;102217.66;;;-2.09;64.47
80644;BME280;70010;60.224;24.712;2024-03-02T07:20:06;102215.86;;;-2.34;67.76
80644;BME280;70010;60.224;24.712;2024-03-02T07:22:30;102212.77;;;-0.26;61.82
80644;BME280;70010;60.224;24.712;2024-03-02T07:24:56;102216.72;;;-1.80;64.77
80644;BME280;70010;60.224;24.712;2024-03-02T07:27:22;102212.60;;;-1.54;64.28
80644;BME280;70010;60.224;24.712;2024-03-02T07:29:47;102214.15;;;-0.35;60.61
80644;BME280;70010;60.224;24.712;2024-03-02T07:32:13;102207.73;;;0.95;57.13
80644;BME280;70010;60.224;24.712;2024-03-02T07:34:38;102210.96;;;-0.87;62.64
80644;BME280;70010;60.224;24.712;2024-03-02T07:37:04;102205.56;;;-0.21;61.29
80644;BME280;70010;60.224;24.712;2024-03-02T07:39:30;102197.21;;;-0.32;59.66
80644;BME280;70010;60.224;24.712;2024-03-02T07:41:55;102198.31;;;-2.24;67.20
80644;BME280;70010;60.224;24.712;2024-03-02T07:44:20;102190.04;;;0.61;59.71
80644;BME280;70010;60.224;24.712;2024-03-02T07:46:46;102184.46;;;0.76;58.66
80644;BME280;70010;60.224;24.712;2024-03-02T07:49:11;102185.71;;;0.44;58.62
80644;BME280;70010;60.224;24.712;2024-03-02T07:51:36;102181.31;;;2.49;53.80
80644;BME280;70010;60.224;24.712;2024-03-02T07:54:02;102188.34;;;0.21;57.34
80644;BME280;70010;60.224;24.712;2024-03-02T07:56:27;102188.01;;;0.27;56.76
80644;BME280;70010;60.224;24.712;2024-03-02T07:58:52;102191.42;;;-0.30;58.90
80644;BME280;70010;60.224;24.712;2024-03-02T08:01:18;102193.69;;;-0.06;59.83
80644;BME280;70010;60.224;24.712;2024-03-02T08:03:43;102193.43;;;0.87;57.84
80644;BME280;70010;60.224;24.712;2024-03-02T08:06:09;102201.67;;;-0.75;63.27
80644;BME280;70010;60.224;24.712;2024-03-02T08:08:34;102191.70;;;1.22;58.22
80644;BME280;70010;60.224;24.712;2024-03-02T08:11:00;102189.30;;;0.60;59.41
80644;BME280;70010;60.224;24.712;2024-03-02T08:13:26;102192.24;;;-1.47;63.43
80644;BME280;70010;60.224;24.712;2024-03-02T08:15:52;102190.34;;;-1.00;62.10
80644;BME280;70010;60.224;24.712;2024-03-02T08:18:17;102188.80;;;-0.96;63.03
80644;BME280;70010;60.224;24.712;2024-03-02T08:20:42;102194.62;;;-2.07;67.50
80644;BME280;70010;60.224;24.712;2024-03-02T08:23:08;102187.89;;;0.30;59.34
80644;BME280;70010;60.224;24.712;2024-03-02T08:25:33;102189.09;;;2.05;55.32
80644;BME280;70010;60.224;24.712;2024-03-02T08:27:59;102182.47;;;2.01;54.87
80644;BME280;70010;60.224;24.712;2024-03-02T08:30:24;102181.32;;;2.42;54.15
80644;BME280;70010;60.224;24.712;2024-03-02T08:32:50;102175.84;;;2.02;54.45
80644;BME280;70010;60.224;24.712;2024-03-02T08:35:14;102176.83;;;1.57;54.63
80644;BME280;70010;60.224;24.712;2024-03-02T08:37:41;102178.44;;;0.05;58.24
80644;BME280;70010;60.224;24.712;2024-03-02T08:40:08;102184.95;;;-0.42;59.96
80644;BME280;70010;60.224;24.712;2024-03-02T08:42:31;102184.86;;;-0.23;59.47
80644;BME280;70010;60.224;24.712;2024-03-02T08:44:57;102178.43;;;1.75;55.50
80644;BME280;70010;60.224;24.712;2024-03-02T08:47:22;102188.74;;;-0.57;61.32
80644;BME280;70010;60.224;24.712;2024-03-02T08:49:47;102183.22;;;1.80;55.95
80644;BME280;70010;60.224;24.712;2024-03-02T08:52:14;102193.87;;;0.88;58.76
80644;BME280;70010;60.224;24.712;2024-03-02T08:54:39;102198.51;;;-0.60;61.54
80644;BME280;70010;60.224;24.712;2024-03-02T08:57:05;102199.62;;;-1.43;62.25
80644;BME280;70010;60.224;24.712;2024-03-02T08:59:30;102202.91;;;0.20;60.24
80644;BME280;70010;60.224;24.712;2024-03-02T09:01:57;102201.89;;;-0.00;60.01
80644;BME280;70010;60.224;24.712;2024-03-02T09:04:22;102205.53;;;-0.66;61.59
80644;BME280;70010;60.224;24.712;2024-03-02T09:06:48;102201.59;;;0.59;58.76
80644;BME280;70010;60.224;24.712;2024-03-02T09:09:13;102200.81;;;0.32;60.36
80644;BME280;70010;60.224;24.712;2024-03-02T09:11:39;102197.56;;;-0.39;60.14
80644;BME280;70010;60.224;24.712;2024-03-02T09:14:05;102189.04;;;0.37;59.35
80644;BME280;70010;60.224;24.712;2024-03-02T09:16:30;102197.40;;;0.00;59.01
80644;BME280;70010;60.224;24.712;2024-03-02T09:18:55;102196.40;;;-1.59;65.10
80644;BME280;70010;60.224;24.712;2024-03-02T09:21:21;102197.32;;;-1.46;64.92
80644;BME280;70010;60.224;24.712;2024-03-02T09:23:46;102202.52;;;-0.45;61.59
80644;BME280;70010;60.224;24.712;2024-03-02T09:26:11;102213.28;;;-1.97;66.91
80644;BME280;70010;60.224;24.712;2024-03-02T09:28:36;102217.36;;;-1.81;64.49
80644;BME280;70010;60.224;24.712;2024-03-02T09:31:02;102218.28;;;-0.06;61.83
80644;BME280;70010;60.224;24.712;2024-03-02T09:33:28;102217.87;;;-0.42;61.14
80644;BME280;70010;60.224;24.712;2024-03-02T09:35:53;102214.13;;;-1.04;62.59
80644;BME280;70010;60.224;24.712;2024-03-02T09:38:19;102211.48;;;-0.81;63.01
80644;BME280;70010;60.224;24.712;2024-03-02T09:40:44;102212.14;;;1.62;56.66
80644;BME280;70010;60.224;24.712;2024-03-02T09:43:10;102216.25;;;-2.17;66.64
80644;BME280;70010;60.224;24.712;2024-03-02T09:45:35;102212.94;;;0.01;60.39
80644;BME280;70010;60.224;24.712;2024-03-02T09:48:01;102209.27;;;0.59;58.64
80644;BME280;70010;60.224;24.712;2024-03-02T09:50:26;102210.37;;;-1.22;64.16
80644;BME280;70010;60.224;24.712;2024-03-02T09:52:52;102208.76;;;1.87;56.26
80644;BME280;70010;60.224;24.712;2024-03-02T09:55:17;102213.36;;;-0.68;61.29
80644;BME280;70010;60.224;24.712;2024-03-02T09:57:42;102210.03;;;-1.23;62.66
80644;BME280;70010;60.224;24.712;2024-03-02T10:00:09;102220.73;;;-1.72;65.83
80644;BME280;70010;60.224;24.712;2024-03-02T10:02:33;102217.74;;;-1.09;62.53
80644;BME280;70010;60.224;24.712;2024-03-02T10:04:58;102224.20;;;0.10;59.83
80644;BME280;70010;60.224;24.712;2024-03-02T10:07:24;102228.11;;;-1.67;63.53
80644;BME280;70010;60.224;24.712;2024-03-02T10:09:49;102229.30;;;-1.86;65.99
80644;BME280;70010;60.224;24.712;2024-03-02T10:12:16;102227.00;;;-1.11;65.40
80644;BME280;70010;60.224;24.712;2024-03-02T10:14:40;102231.60;;;-0.10;61.71
80644;BME280;70010;60.224;24.712;2024-03-02T10:17:07;102237.75;;;-2.00;67.03
80644;BME280;70010;60.224;24.712;2024-03-02T10:19:31;102233.90;;;-1.72;64.97
80644;BME280;70010;60.224;24.712;2024-03-02T10:21:56;102231.71;;;-0.49;61.44
80644;BME280;70010;60.224;24.712;2024-03-02T10:24:22;102235.25;;;-1.98;65.98
80644;BME280;70010;60.224;24.712;2024-03-02T10:26:47;102237.15;;;-1.98;66.29
80644;BME280;70010;60.224;24.712;2024-03-02T10:29:12;102236.62;;;-0.72;63.49
80644;BME280;70010;60.224;24.712;2024-03-02T10:31:38;102236.22;;;-0.80;61.76
80644;BME280;70010;60.224;24.712;2024-03-02T10:34:02;102238.43;;;0.12;59.24
80644;BME280;70010;60.224;24.712;2024-03-02T10:36:28;102234.19;;;-1.29;63.77
80644;BME280;70010;60.224;24.712;2024-03-02T10:38:56;102238.15;;;-1.52;63.64
80644;BME280;70010;60.224;24.712;2024-03-02T10:41:20;102239.98;;;-1.90;65.56
80644;BME280;70010;60.224;24.712;2024-03-02T10:43:45;102236.59;;;-1.88;67.03
80644;BME280;70010;60.224;24.712;2024-03-02T10:46:11;102236.47;;;-2.69;68.96
80644;BME280;70010;60.224;24.712;2024-03-02T10:48:35;102225.10;;;-0.02;61.63
80644;BME280;70010;60.224;24.712;2024-03-02T10:51:01;102230.09;;;-0.63;61.47
80644;BME280;70010;60.224;24.712;2024-03-02T10:53:26;102229.52;;;-1.09;64.64
80644;BME280;70010;60.224;24.712;2024-03-02T10:55:56;102231.57;;;-0.44;62.55
80644;BME280;70010;60.224;24.712;2024-03-02T10:58:17;102229.91;;;-0.81;62.35
80644;BME280;70010;60.224;24.712;2024-03-02T11:00:41;102227.84;;;-0.95;62.85
80644;BME280;70010;60.224;24.712;2024-03-02T11:03:07;102231.31;;;-2.00;67.83
80644;BME280;70010;60.224;24.712;2024-03-02T11:05:36;102229.16;;;-0.70;63.83
80644;BME280;70010;60.224;24.712;2024-03-02T11:08:00;102226.81;;;-0.87;64.20
80644;BME280;70010;60.224;24.712;2024-03-02T11:10:23;102232.14;;;-0.89;62.86
80644;BME280;70010;60.224;24.712;2024-03-02T11:12:56;102233.31;;;-2.86;71.21
80644;BME280;70010;60.224;24.712;2024-03-02T11:15:18;102232.27;;;-0.91;65.16
80644;BME280;70010;60.224;24.712;2024-03-02T11:17:40;102231.68;;;-0.78;63.62
80644;BME280;70010;60.224;24.712;2024-03-02T11:20:06;102225.59;;;0.78;59.20
80644;BME280;70010;60.224;24.712;2024-03-02T11:22:31;102229.41;;;1.55;56.09
80644;BME280;70010;60.224;24.712;2024-03-02T11:24:56;102232.16;;;-0.21;61.83
80644;BME280;70010;60.224;24.712;2024-03-02T11:29:47;102231.20;;;-0.26;61.70
80644;BME280;70010;60.224;24.712;2024-03-02T11:32:15;102231.46;;;-1.19;64.68
80644;BME280;70010;60.224;24.712;2024-03-02T11:34:37;102230.04;;;-1.86;66.57
80644;BME280;70010;60.224;24.712;2024-03-02T11:37:03;102227.72;;;-1.79;65.09
80644;BME280;70010;60.224;24.712;2024-03-02T11:39:28;102226.07;;;-0.17;62.27
80644;BME280;70010;60.224;24.712;2024-03-02T11:41:53;102227.92;;;-0.49;63.08
80644;BME280;70010;60.224;24.712;2024-03-02T11:44:19;102226.49;;;-0.98;63.63
80644;BME280;70010;60.224;24.712;2024-03-02T11:46:45;102228.10;;;-3.10;70.87
80644;BME280;70010;60.224;24.712;2024-03-02T11:49:09;102230.49;;;-1.88;68.17
80644;BME280;70010;60.224;24.712;2024-03-02T11:51:35;102225.91;;;-1.60;67.95
80644;BME280;70010;60.224;24.712;2024-03-02T11:54:01;102223.40;;;-0.05;62.35
80644;BME280;70010;60.224;24.712;2024-03-02T11:56:26;102221.47;;;-0.99;64.29
80644;BME280;70010;60.224;24.712;2024-03-02T11:58:53;102222.96;;;-0.10;63.17
80644;BME280;70010;60.224;24.712;2024-03-02T12:01:16;102221.78;;;-0.71;63.68
80644;BME280;70010;60.224;24.712;2024-03-02T12:03:41;102219.64;;;-1.07;64.75
80644;BME280;70010;60.224;24.712;2024-03-02T12:06:07;102223.68;;;-0.31;63.37
80644;BME280;70010;60.224;24.712;2024-03-02T12:08:32;102223.47;;;-0.99;63.66
80644;BME280;70010;60.224;24.712;2024-03-02T12:10:59;102224.98;;;-0.19;62.36
80644;BME280;70010;60.224;24.712;2024-03-02T12:13:24;102221.48;;;-0.75;63.03
80644;BME280;70010;60.224;24.712;2024-03-02T12:15:53;102222.66;;;0.06;60.82
80644;BME280;70010;60.224;24.712;2024-03-02T12:18:15;102218.16;;;0.29;60.39
80644;BME280;70010;60.224;24.712;2024-03-02T12:20:41;102217.41;;;0.63;59.93
80644;BME280;70010;60.224;24.712;2024-03-02T12:23:06;102217.70;;;0.13;61.79
80644;BME280;70010;60.224;24.712;2024-03-02T12:25:33;102207.66;;;0.52;60.31
80644;BME280;70010;60.224;24.712;2024-03-02T12:27:59;102210.52;;;-0.16;62.72
80644;BME280;70010;60.224;24.712;2024-03-02T12:30:23;102205.58;;;1.73;57.68
80644;BME280;70010;60.224;24.712;2024-03-02T12:32:48;102211.05;;;0.97;58.94
80644;BME280;70010;60.224;24.712;2024-03-02T12:35:14;102215.41;;;-2.11;67.54